Terminal Aerodrome Forecast
Issued by NWS

Home | Current Version | Previous Version | Graphics & Text | Print | Product List | Glossary Off
Versions: 1 2 3 4 5 6 7 8 9 10 11 12 13 14 15 16 17 18 19 20 21 22 23 24 25 26 27 28 29 30 31 32 33

000
FTUS43 KDDC 230551 CCA
TAFHYS
TAF COR
KHYS 230551Z 2306/2406 16013KT P6SM BKN120
      TEMPO 2307/2310 3SM -TSRA BR SCT020 BKN030CB
     FM231500 18018G26KT P6SM SCT040 SCT300
     FM240000 16015G21KT P6SM VCTS SCT050CB SCT150
     FM240400 17011KT P6SM BKN150=

USA.gov is the U.S. government's official web portal to all federal, state and local government web resources and services.